sensor_id;sensor_type;location;lat;lon;timestamp;pressure;altitude;pressure_sealevel;temperature;humidity
49943;BME280;36011;53.362;58.948;2023-05-22T00:00:33;97924.66;;;10.47;36.10
49943;BME280;36011;53.362;58.948;2023-05-22T00:03:35;97926.56;;;10.44;35.65
49943;BME280;36011;53.362;58.948;2023-05-22T00:06:40;97928.28;;;10.45;36.39
49943;BME280;36011;53.362;58.948;2023-05-22T00:09:41;97928.00;;;10.51;34.53
49943;BME280;36011;53.362;58.948;2023-05-22T00:12:42;97933.25;;;10.51;35.39
49943;BME280;36011;53.362;58.948;2023-05-22T00:15:43;97934.09;;;10.51;35.21
49943;BME280;36011;53.362;58.948;2023-05-22T00:18:47;97933.25;;;10.51;35.01
49943;BME280;36011;53.362;58.948;2023-05-22T00:21:49;97932.94;;;10.57;35.24
49943;BME280;36011;53.362;58.948;2023-05-22T00:24:51;97943.19;;;10.63;35.50
49943;BME280;36011;53.362;58.948;2023-05-22T00:27:52;97936.22;;;10.62;34.88
49943;BME280;36011;53.362;58.948;2023-05-22T00:30:53;97949.72;;;10.73;35.42
49943;BME280;36011;53.362;58.948;2023-05-22T00:33:54;97943.47;;;10.76;35.57
49943;BME280;36011;53.362;58.948;2023-05-22T00:36:55;97939.72;;;10.80;35.16
49943;BME280;36011;53.362;58.948;2023-05-22T00:40:04;97942.00;;;10.88;35.92
49943;BME280;36011;53.362;58.948;2023-05-22T00:43:12;97939.28;;;10.89;35.58
49943;BME280;36011;53.362;58.948;2023-05-22T00:46:16;97951.59;;;10.89;36.23
49943;BME280;36011;53.362;58.948;2023-05-22T00:49:23;97952.53;;;10.88;36.91
49943;BME280;36011;53.362;58.948;2023-05-22T00:52:25;97949.75;;;10.91;36.16
49943;BME280;36011;53.362;58.948;2023-05-22T00:55:33;97949.66;;;10.92;37.75
49943;BME280;36011;53.362;58.948;2023-05-22T00:58:39;97948.66;;;10.95;35.93
49943;BME280;36011;53.362;58.948;2023-05-22T01:01:42;97957.34;;;10.97;35.24
49943;BME280;36011;53.362;58.948;2023-05-22T01:04:49;97950.53;;;10.93;35.78
49943;BME280;36011;53.362;58.948;2023-05-22T01:07:53;97954.06;;;10.92;37.26
49943;BME280;36011;53.362;58.948;2023-05-22T01:11:20;97955.66;;;10.96;37.07
49943;BME280;36011;53.362;58.948;2023-05-22T01:20:43;97959.78;;;11.36;35.55
49943;BME280;36011;53.362;58.948;2023-05-22T01:30:19;97968.59;;;11.70;35.53
49943;BME280;36011;53.362;58.948;2023-05-22T01:33:23;97972.38;;;11.82;35.53
49943;BME280;36011;53.362;58.948;2023-05-22T01:36:30;97973.47;;;11.95;35.37
49943;BME280;36011;53.362;58.948;2023-05-22T01:39:39;97978.25;;;12.04;34.78
49943;BME280;36011;53.362;58.948;2023-05-22T01:42:44;97983.03;;;12.13;34.72
49943;BME280;36011;53.362;58.948;2023-05-22T01:45:47;97978.13;;;12.23;35.16
49943;BME280;36011;53.362;58.948;2023-05-22T01:48:51;97986.22;;;12.36;34.78
49943;BME280;36011;53.362;58.948;2023-05-22T01:51:56;97984.53;;;12.51;34.82
49943;BME280;36011;53.362;58.948;2023-05-22T01:55:04;97980.38;;;12.63;35.26
49943;BME280;36011;53.362;58.948;2023-05-22T01:58:11;97982.41;;;12.73;34.18
49943;BME280;36011;53.362;58.948;2023-05-22T02:01:18;97977.47;;;12.83;35.01
49943;BME280;36011;53.362;58.948;2023-05-22T02:04:20;97989.19;;;12.93;34.58
49943;BME280;36011;53.362;58.948;2023-05-22T02:07:22;97992.19;;;13.03;34.93
49943;BME280;36011;53.362;58.948;2023-05-22T02:10:27;97985.28;;;13.16;34.83
49943;BME280;36011;53.362;58.948;2023-05-22T02:13:31;97981.66;;;13.33;34.32
49943;BME280;36011;53.362;58.948;2023-05-22T02:16:37;97989.66;;;13.47;33.49
49943;BME280;36011;53.362;58.948;2023-05-22T02:19:41;98000.47;;;13.59;33.30
49943;BME280;36011;53.362;58.948;2023-05-22T02:22:45;97998.09;;;13.68;33.64
49943;BME280;36011;53.362;58.948;2023-05-22T02:25:46;97999.94;;;13.82;33.08
49943;BME280;36011;53.362;58.948;2023-05-22T02:28:50;97998.91;;;13.99;33.01
49943;BME280;36011;53.362;58.948;2023-05-22T02:31:53;98008.66;;;14.13;33.44
49943;BME280;36011;53.362;58.948;2023-05-22T02:34:59;98002.41;;;14.28;33.64
49943;BME280;36011;53.362;58.948;2023-05-22T02:38:00;98000.16;;;14.36;33.38
49943;BME280;36011;53.362;58.948;2023-05-22T02:41:03;98010.84;;;14.49;33.15
49943;BME280;36011;53.362;58.948;2023-05-22T02:44:07;98005.63;;;14.62;32.72
49943;BME280;36011;53.362;58.948;2023-05-22T02:47:08;98011.75;;;14.77;32.57
49943;BME280;36011;53.362;58.948;2023-05-22T02:50:09;98013.84;;;14.86;32.87
49943;BME280;36011;53.362;58.948;2023-05-22T02:53:13;98011.22;;;14.99;32.48
49943;BME280;36011;53.362;58.948;2023-05-22T02:56:20;98019.91;;;15.15;32.70
49943;BME280;36011;53.362;58.948;2023-05-22T02:59:26;98023.97;;;15.34;32.22
49943;BME280;36011;53.362;58.948;2023-05-22T03:02:32;98033.03;;;15.44;32.41
49943;BME280;36011;53.362;58.948;2023-05-22T03:05:37;98034.66;;;15.59;32.08
49943;BME280;36011;53.362;58.948;2023-05-22T03:08:40;98039.00;;;15.75;31.89
49943;BME280;36011;53.362;58.948;2023-05-22T03:11:43;98035.22;;;15.91;32.00
49943;BME280;36011;53.362;58.948;2023-05-22T03:14:44;98042.94;;;16.07;31.63
49943;BME280;36011;53.362;58.948;2023-05-22T03:17:45;98049.03;;;16.22;31.41
49943;BME280;36011;53.362;58.948;2023-05-22T03:20:46;98040.97;;;16.36;31.41
49943;BME280;36011;53.362;58.948;2023-05-22T03:23:52;98033.72;;;16.51;31.28
49943;BME280;36011;53.362;58.948;2023-05-22T03:26:53;98036.13;;;16.67;32.02
49943;BME280;36011;53.362;58.948;2023-05-22T03:29:56;98033.25;;;16.83;31.27
49943;BME280;36011;53.362;58.948;2023-05-22T03:33:00;98031.94;;;17.01;30.85
49943;BME280;36011;53.362;58.948;2023-05-22T03:36:04;98037.81;;;17.18;30.82
49943;BME280;36011;53.362;58.948;2023-05-22T03:39:05;98031.63;;;17.30;30.94
49943;BME280;36011;53.362;58.948;2023-05-22T03:42:09;98038.97;;;17.50;30.32
49943;BME280;36011;53.362;58.948;2023-05-22T03:45:13;98027.06;;;17.67;29.93
49943;BME280;36011;53.362;58.948;2023-05-22T03:48:16;98031.88;;;17.86;29.84
49943;BME280;36011;53.362;58.948;2023-05-22T03:51:17;98031.44;;;18.04;29.50
49943;BME280;36011;53.362;58.948;2023-05-22T03:54:18;98030.25;;;18.19;29.37
49943;BME280;36011;53.362;58.948;2023-05-22T03:57:20;98019.97;;;18.37;29.26
49943;BME280;36011;53.362;58.948;2023-05-22T04:00:24;98031.00;;;18.55;29.02
49943;BME280;36011;53.362;58.948;2023-05-22T04:03:26;98036.38;;;18.77;28.35
49943;BME280;36011;53.362;58.948;2023-05-22T04:06:29;98032.22;;;18.84;28.38
49943;BME280;36011;53.362;58.948;2023-05-22T04:09:34;98041.69;;;19.00;28.05
49943;BME280;36011;53.362;58.948;2023-05-22T04:12:38;98046.09;;;19.22;27.72
49943;BME280;36011;53.362;58.948;2023-05-22T04:15:41;98038.19;;;19.43;27.18
49943;BME280;36011;53.362;58.948;2023-05-22T04:18:46;98033.63;;;19.55;27.23
49943;BME280;36011;53.362;58.948;2023-05-22T04:21:50;98046.94;;;19.77;27.34
49943;BME280;36011;53.362;58.948;2023-05-22T04:24:54;98029.94;;;19.99;27.09
49943;BME280;36011;53.362;58.948;2023-05-22T04:27:58;98041.91;;;20.26;26.82
49943;BME280;36011;53.362;58.948;2023-05-22T04:31:02;98040.59;;;20.62;26.28
49943;BME280;36011;53.362;58.948;2023-05-22T04:34:10;98037.50;;;21.07;25.22
49943;BME280;36011;53.362;58.948;2023-05-22T04:37:14;98035.13;;;22.97;23.41
49943;BME280;36011;53.362;58.948;2023-05-22T04:40:15;98035.47;;;25.56;21.14
49943;BME280;36011;53.362;58.948;2023-05-22T04:43:17;98045.38;;;28.11;19.17
49943;BME280;36011;53.362;58.948;2023-05-22T04:46:18;98044.06;;;30.63;17.12
49943;BME280;36011;53.362;58.948;2023-05-22T04:49:20;98052.47;;;32.65;16.18
49943;BME280;36011;53.362;58.948;2023-05-22T04:52:21;98055.28;;;34.64;14.26
49943;BME280;36011;53.362;58.948;2023-05-22T04:55:22;98049.69;;;36.53;11.65
49943;BME280;36011;53.362;58.948;2023-05-22T04:58:28;98060.81;;;38.49;12.17
49943;BME280;36011;53.362;58.948;2023-05-22T05:01:32;98061.31;;;39.84;13.14
49943;BME280;36011;53.362;58.948;2023-05-22T05:04:37;98055.31;;;41.47;11.10
49943;BME280;36011;53.362;58.948;2023-05-22T05:07:38;98054.66;;;43.20;11.57
49943;BME280;36011;53.362;58.948;2023-05-22T05:10:39;98057.97;;;44.56;10.78
49943;BME280;36011;53.362;58.948;2023-05-22T05:13:42;98053.44;;;45.66;8.02
49943;BME280;36011;53.362;58.948;2023-05-22T05:16:48;98057.69;;;46.53;8.87
49943;BME280;36011;53.362;58.948;2023-05-22T05:19:53;98054.81;;;47.60;7.61
49943;BME280;36011;53.362;58.948;2023-05-22T05:22:56;98059.78;;;48.59;8.47
49943;BME280;36011;53.362;58.948;2023-05-22T05:25:58;98054.25;;;48.98;8.39
49943;BME280;36011;53.362;58.948;2023-05-22T05:29:03;98057.22;;;49.51;7.80
49943;BME280;36011;53.362;58.948;2023-05-22T05:32:04;98054.31;;;49.82;7.63
49943;BME280;36011;53.362;58.948;2023-05-22T05:35:08;98049.72;;;49.77;6.74
49943;BME280;36011;53.362;58.948;2023-05-22T05:38:14;98046.28;;;50.32;6.96
49943;BME280;36011;53.362;58.948;2023-05-22T05:41:19;98039.53;;;50.16;5.19
49943;BME280;36011;53.362;58.948;2023-05-22T05:44:24;98042.31;;;50.33;5.17
49943;BME280;36011;53.362;58.948;2023-05-22T05:47:29;98052.44;;;50.82;6.04
49943;BME280;36011;53.362;58.948;2023-05-22T05:50:32;98054.13;;;51.51;5.01
49943;BME280;36011;53.362;58.948;2023-05-22T05:53:36;98038.94;;;52.02;4.89
49943;BME280;36011;53.362;58.948;2023-05-22T05:56:40;98034.31;;;52.19;4.52
49943;BME280;36011;53.362;58.948;2023-05-22T05:59:42;98032.44;;;52.23;4.46
49943;BME280;36011;53.362;58.948;2023-05-22T06:02:43;98040.13;;;52.80;4.44
49943;BME280;36011;53.362;58.948;2023-05-22T06:05:48;98042.22;;;53.94;4.43
49943;BME280;36011;53.362;58.948;2023-05-22T06:08:51;98031.81;;;54.82;4.39
49943;BME280;36011;53.362;58.948;2023-05-22T06:11:53;98027.47;;;55.68;3.33
49943;BME280;36011;53.362;58.948;2023-05-22T06:14:56;98026.31;;;56.27;3.23
49943;BME280;36011;53.362;58.948;2023-05-22T06:17:58;98015.28;;;55.28;2.60
49943;BME280;36011;53.362;58.948;2023-05-22T06:21:02;98020.00;;;54.33;3.34
49943;BME280;36011;53.362;58.948;2023-05-22T06:24:09;98009.84;;;54.44;3.50
49943;BME280;36011;53.362;58.948;2023-05-22T06:27:14;98023.63;;;55.76;3.28
49943;BME280;36011;53.362;58.948;2023-05-22T06:30:18;98013.00;;;56.70;1.62
49943;BME280;36011;53.362;58.948;2023-05-22T06:33:21;98012.69;;;56.75;3.09
49943;BME280;36011;53.362;58.948;2023-05-22T06:36:23;98010.78;;;57.32;3.06
49943;BME280;36011;53.362;58.948;2023-05-22T06:39:26;98016.75;;;57.81;2.84
49943;BME280;36011;53.362;58.948;2023-05-22T06:42:31;98017.00;;;57.98;2.62
49943;BME280;36011;53.362;58.948;2023-05-22T06:45:38;98009.66;;;57.94;2.01
49943;BME280;36011;53.362;58.948;2023-05-22T06:48:41;98024.59;;;57.64;2.63
49943;BME280;36011;53.362;58.948;2023-05-22T06:51:44;98015.38;;;57.41;2.18
49943;BME280;36011;53.362;58.948;2023-05-22T06:54:47;98015.50;;;55.74;2.22
49943;BME280;36011;53.362;58.948;2023-05-22T06:57:51;98004.56;;;55.53;2.63
49943;BME280;36011;53.362;58.948;2023-05-22T07:00:54;97992.91;;;57.02;1.95
49943;BME280;36011;53.362;58.948;2023-05-22T07:03:57;98011.53;;;57.83;1.83
49943;BME280;36011;53.362;58.948;2023-05-22T07:07:01;97999.59;;;58.00;1.49
49943;BME280;36011;53.362;58.948;2023-05-22T07:10:04;98010.84;;;57.93;1.78
49943;BME280;36011;53.362;58.948;2023-05-22T07:13:10;98003.72;;;58.06;1.78
49943;BME280;36011;53.362;58.948;2023-05-22T07:16:14;97997.06;;;57.61;1.71
49943;BME280;36011;53.362;58.948;2023-05-22T07:19:17;97994.59;;;58.20;2.01
49943;BME280;36011;53.362;58.948;2023-05-22T07:22:21;97990.50;;;58.99;1.34
49943;BME280;36011;53.362;58.948;2023-05-22T07:25:24;97991.94;;;58.04;1.31
49943;BME280;36011;53.362;58.948;2023-05-22T07:28:28;97986.63;;;57.65;1.41
49943;BME280;36011;53.362;58.948;2023-05-22T07:31:31;97991.19;;;58.41;1.19
49943;BME280;36011;53.362;58.948;2023-05-22T07:34:36;97997.91;;;59.15;1.68
49943;BME280;36011;53.362;58.948;2023-05-22T07:37:39;97994.56;;;58.98;1.34
49943;BME280;36011;53.362;58.948;2023-05-22T07:40:42;97991.72;;;58.57;1.75
49943;BME280;36011;53.362;58.948;2023-05-22T07:43:45;97993.91;;;58.34;1.28
49943;BME280;36011;53.362;58.948;2023-05-22T07:46:48;97989.78;;;58.24;1.73
49943;BME280;36011;53.362;58.948;2023-05-22T07:49:51;97983.88;;;58.06;1.69
49943;BME280;36011;53.362;58.948;2023-05-22T07:52:54;97987.81;;;58.69;1.14
49943;BME280;36011;53.362;58.948;2023-05-22T07:55:57;97994.28;;;59.18;0.92
49943;BME280;36011;53.362;58.948;2023-05-22T07:59:00;97992.84;;;58.90;1.16
49943;BME280;36011;53.362;58.948;2023-05-22T08:02:03;97991.31;;;59.00;0.91
49943;BME280;36011;53.362;58.948;2023-05-22T08:05:07;97982.81;;;58.55;1.06
49943;BME280;36011;53.362;58.948;2023-05-22T08:08:10;97991.44;;;59.18;0.95
49943;BME280;36011;53.362;58.948;2023-05-22T08:11:12;97997.91;;;58.29;1.67
49943;BME280;36011;53.362;58.948;2023-05-22T08:14:17;97974.53;;;57.68;1.33
49943;BME280;36011;53.362;58.948;2023-05-22T08:17:19;97977.78;;;57.70;1.09
49943;BME280;36011;53.362;58.948;2023-05-22T08:20:22;97970.63;;;56.28;0.94
49943;BME280;36011;53.362;58.948;2023-05-22T08:23:25;97966.41;;;55.08;2.09
49943;BME280;36011;53.362;58.948;2023-05-22T08:26:28;97974.69;;;55.33;1.39
49943;BME280;36011;53.362;58.948;2023-05-22T08:29:31;97967.28;;;55.44;1.79
49943;BME280;36011;53.362;58.948;2023-05-22T08:32:33;97966.53;;;56.25;1.80
49943;BME280;36011;53.362;58.948;2023-05-22T08:35:38;97971.59;;;56.16;1.47
49943;BME280;36011;53.362;58.948;2023-05-22T08:38:40;97954.81;;;56.46;1.42
49943;BME280;36011;53.362;58.948;2023-05-22T08:41:43;97961.66;;;56.68;1.25
49943;BME280;36011;53.362;58.948;2023-05-22T08:44:48;97957.31;;;56.09;1.63
49943;BME280;36011;53.362;58.948;2023-05-22T08:47:54;97963.44;;;54.69;1.78
49943;BME280;36011;53.362;58.948;2023-05-22T08:51:03;97951.84;;;53.71;1.98
49943;BME280;36011;53.362;58.948;2023-05-22T08:54:08;97955.94;;;53.73;1.57
49943;BME280;36011;53.362;58.948;2023-05-22T08:57:11;97939.59;;;53.51;2.07
49943;BME280;36011;53.362;58.948;2023-05-22T09:00:13;97944.63;;;53.57;2.20
49943;BME280;36011;53.362;58.948;2023-05-22T09:03:15;97931.38;;;54.14;1.67
49943;BME280;36011;53.362;58.948;2023-05-22T09:06:18;97941.03;;;53.85;1.66
49943;BME280;36011;53.362;58.948;2023-05-22T09:09:19;97927.25;;;52.78;2.00
49943;BME280;36011;53.362;58.948;2023-05-22T09:12:24;97939.03;;;52.59;2.33
49943;BME280;36011;53.362;58.948;2023-05-22T09:15:27;97940.50;;;53.02;1.99
49943;BME280;36011;53.362;58.948;2023-05-22T09:18:32;97936.75;;;53.63;1.95
49943;BME280;36011;53.362;58.948;2023-05-22T09:21:34;97935.78;;;53.18;1.78
49943;BME280;36011;53.362;58.948;2023-05-22T09:24:39;97930.28;;;52.61;1.71
49943;BME280;36011;53.362;58.948;2023-05-22T09:27:44;97921.03;;;51.60;2.14
49943;BME280;36011;53.362;58.948;2023-05-22T09:30:47;97930.63;;;50.79;2.41
49943;BME280;36011;53.362;58.948;2023-05-22T09:33:52;97927.09;;;50.14;2.44
49943;BME280;36011;53.362;58.948;2023-05-22T09:37:01;97931.25;;;49.64;2.79
49943;BME280;36011;53.362;58.948;2023-05-22T09:40:07;97932.28;;;50.42;2.59
49943;BME280;36011;53.362;58.948;2023-05-22T09:43:11;97926.75;;;51.01;2.48
49943;BME280;36011;53.362;58.948;2023-05-22T09:46:19;97922.56;;;51.37;2.28
49943;BME280;36011;53.362;58.948;2023-05-22T09:49:20;97914.72;;;51.01;2.35
49943;BME280;36011;53.362;58.948;2023-05-22T09:52:22;97922.06;;;50.46;2.36
49943;BME280;36011;53.362;58.948;2023-05-22T09:55:26;97917.91;;;49.70;2.83
49943;BME280;36011;53.362;58.948;2023-05-22T09:58:29;97920.19;;;49.33;2.94
49943;BME280;36011;53.362;58.948;2023-05-22T10:01:34;97916.69;;;49.19;2.76
49943;BME280;36011;53.362;58.948;2023-05-22T10:04:38;97898.56;;;48.90;2.82
49943;BME280;36011;53.362;58.948;2023-05-22T10:07:48;97906.88;;;49.30;2.95
49943;BME280;36011;53.362;58.948;2023-05-22T10:10:50;97905.69;;;49.49;2.79
49943;BME280;36011;53.362;58.948;2023-05-22T10:13:58;97905.69;;;49.49;2.97
49943;BME280;36011;53.362;58.948;2023-05-22T10:17:02;97900.25;;;49.17;2.75
49943;BME280;36011;53.362;58.948;2023-05-22T10:20:07;97902.53;;;48.98;2.86
49943;BME280;36011;53.362;58.948;2023-05-22T10:23:09;97899.56;;;48.94;2.88
49943;BME280;36011;53.362;58.948;2023-05-22T10:26:11;97886.81;;;48.71;3.52
49943;BME280;36011;53.362;58.948;2023-05-22T10:29:17;97894.16;;;47.96;3.60
49943;BME280;36011;53.362;58.948;2023-05-22T10:32:26;97896.84;;;46.92;3.90
49943;BME280;36011;53.362;58.948;2023-05-22T10:35:49;97891.81;;;46.80;3.67
49943;BME280;36011;53.362;58.948;2023-05-22T10:42:02;97890.53;;;43.39;4.88
49943;BME280;36011;53.362;58.948;2023-05-22T10:45:09;97888.19;;;43.96;4.79
49943;BME280;36011;53.362;58.948;2023-05-22T10:48:14;97892.75;;;44.64;4.41
49943;BME280;36011;53.362;58.948;2023-05-22T10:51:19;97884.69;;;45.10;4.35
49943;BME280;36011;53.362;58.948;2023-05-22T10:54:35;97895.69;;;44.96;4.41
49943;BME280;36011;53.362;58.948;2023-05-22T10:57:47;97882.44;;;44.45;4.51
49943;BME280;36011;53.362;58.948;2023-05-22T11:00:48;97882.00;;;44.04;4.59
49943;BME280;36011;53.362;58.948;2023-05-22T11:07:11;97869.06;;;43.20;4.69
49943;BME280;36011;53.362;58.948;2023-05-22T11:10:25;97871.50;;;42.67;5.13
49943;BME280;36011;53.362;58.948;2023-05-22T11:13:27;97862.75;;;42.29;5.43
49943;BME280;36011;53.362;58.948;2023-05-22T11:16:31;97866.41;;;41.89;5.44
49943;BME280;36011;53.362;58.948;2023-05-22T11:19:33;97869.41;;;41.46;5.51
49943;BME280;36011;53.362;58.948;2023-05-22T11:22:39;97867.75;;;41.20;5.64
49943;BME280;36011;53.362;58.948;2023-05-22T11:25:43;97862.22;;;41.30;5.75
49943;BME280;36011;53.362;58.948;2023-05-22T11:28:50;97858.38;;;41.36;5.62
49943;BME280;36011;53.362;58.948;2023-05-22T11:31:53;97852.53;;;41.07;5.75
49943;BME280;36011;53.362;58.948;2023-05-22T11:35:01;97855.09;;;40.13;6.28
49943;BME280;36011;53.362;58.948;2023-05-22T11:38:06;97849.38;;;38.52;6.53
49943;BME280;36011;53.362;58.948;2023-05-22T11:41:08;97842.44;;;37.89;6.83
49943;BME280;36011;53.362;58.948;2023-05-22T11:44:09;97838.09;;;37.76;7.11
49943;BME280;36011;53.362;58.948;2023-05-22T11:47:13;97841.09;;;37.91;7.02
49943;BME280;36011;53.362;58.948;2023-05-22T11:50:14;97833.59;;;37.87;7.11
49943;BME280;36011;53.362;58.948;2023-05-22T11:53:18;97840.41;;;37.84;6.67
49943;BME280;36011;53.362;58.948;2023-05-22T11:56:23;97843.59;;;37.76;7.17
49943;BME280;36011;53.362;58.948;2023-05-22T11:59:25;97841.94;;;37.58;7.31
49943;BME280;36011;53.362;58.948;2023-05-22T12:02:29;97849.69;;;37.16;6.93
49943;BME280;36011;53.362;58.948;2023-05-22T12:05:33;97845.28;;;36.86;7.40
49943;BME280;36011;53.362;58.948;2023-05-22T12:08:37;97842.06;;;36.77;7.69
49943;BME280;36011;53.362;58.948;2023-05-22T12:11:38;97838.41;;;36.72;7.54
49943;BME280;36011;53.362;58.948;2023-05-22T12:14:42;97843.59;;;36.56;7.82
49943;BME280;36011;53.362;58.948;2023-05-22T12:17:43;97842.09;;;36.13;7.79
49943;BME280;36011;53.362;58.948;2023-05-22T12:20:46;97845.41;;;35.92;7.68
49943;BME280;36011;53.362;58.948;2023-05-22T12:23:56;97842.91;;;35.90;7.85
49943;BME280;36011;53.362;58.948;2023-05-22T12:26:59;97836.59;;;35.66;7.99
49943;BME280;36011;53.362;58.948;2023-05-22T12:30:07;97835.22;;;35.34;8.09
49943;BME280;36011;53.362;58.948;2023-05-22T12:33:13;97827.69;;;35.17;8.24
49943;BME280;36011;53.362;58.948;2023-05-22T12:36:17;97828.88;;;35.21;8.31
49943;BME280;36011;53.362;58.948;2023-05-22T12:39:18;97824.91;;;34.75;8.46
49943;BME280;36011;53.362;58.948;2023-05-22T12:42:19;97824.97;;;33.95;8.84
49943;BME280;36011;53.362;58.948;2023-05-22T12:45:23;97830.13;;;33.28;8.97
49943;BME280;36011;53.362;58.948;2023-05-22T12:48:24;97832.28;;;32.81;9.41
49943;BME280;36011;53.362;58.948;2023-05-22T12:51:30;97826.84;;;32.36;9.43
49943;BME280;36011;53.362;58.948;2023-05-22T12:54:34;97819.41;;;31.71;9.91
49943;BME280;36011;53.362;58.948;2023-05-22T12:57:35;97831.41;;;30.76;10.32
49943;BME280;36011;53.362;58.948;2023-05-22T13:00:36;97822.75;;;30.11;10.64
49943;BME280;36011;53.362;58.948;2023-05-22T13:03:40;97829.09;;;29.62;11.08
49943;BME280;36011;53.362;58.948;2023-05-22T13:06:43;97828.09;;;29.41;10.71
49943;BME280;36011;53.362;58.948;2023-05-22T13:09:44;97825.88;;;29.51;10.77
49943;BME280;36011;53.362;58.948;2023-05-22T13:12:45;97823.69;;;29.62;10.76
49943;BME280;36011;53.362;58.948;2023-05-22T13:15:52;97819.56;;;29.66;10.59
49943;BME280;36011;53.362;58.948;2023-05-22T13:18:58;97828.59;;;29.73;10.80
49943;BME280;36011;53.362;58.948;2023-05-22T13:22:02;97835.44;;;29.69;10.85
49943;BME280;36011;53.362;58.948;2023-05-22T13:25:07;97836.78;;;29.58;10.81
49943;BME280;36011;53.362;58.948;2023-05-22T13:28:12;97830.66;;;29.49;10.76
49943;BME280;36011;53.362;58.948;2023-05-22T13:31:13;97826.03;;;29.43;11.02
49943;BME280;36011;53.362;58.948;2023-05-22T13:34:14;97822.63;;;29.35;10.80
49943;BME280;36011;53.362;58.948;2023-05-22T13:37:18;97823.28;;;29.15;10.99
49943;BME280;36011;53.362;58.948;2023-05-22T13:40:23;97821.81;;;28.98;11.02
49943;BME280;36011;53.362;58.948;2023-05-22T13:43:24;97834.41;;;28.84;11.45
49943;BME280;36011;53.362;58.948;2023-05-22T13:46:25;97828.59;;;28.65;11.53
49943;BME280;36011;53.362;58.948;2023-05-22T13:49:31;97833.66;;;28.54;11.58
49943;BME280;36011;53.362;58.948;2023-05-22T13:52:32;97845.03;;;28.49;11.66
49943;BME280;36011;53.362;58.948;2023-05-22T13:55:33;97835.06;;;28.35;11.80
49943;BME280;36011;53.362;58.948;2023-05-22T13:58:34;97832.53;;;28.18;11.99
49943;BME280;36011;53.362;58.948;2023-05-22T14:01:36;97837.88;;;27.97;12.09
49943;BME280;36011;53.362;58.948;2023-05-22T14:04:37;97835.00;;;27.61;12.32
49943;BME280;36011;53.362;58.948;2023-05-22T14:07:43;97840.16;;;27.33;12.50
49943;BME280;36011;53.362;58.948;2023-05-22T14:10:48;97829.88;;;27.05;12.39
49943;BME280;36011;53.362;58.948;2023-05-22T14:13:51;97828.69;;;26.84;12.63
49943;BME280;36011;53.362;58.948;2023-05-22T14:16:56;97834.44;;;26.58;12.75
49943;BME280;36011;53.362;58.948;2023-05-22T14:19:59;97835.69;;;26.31;13.17
49943;BME280;36011;53.362;58.948;2023-05-22T14:23:02;97837.50;;;26.08;12.99
49943;BME280;36011;53.362;58.948;2023-05-22T14:26:08;97838.22;;;25.85;13.38
49943;BME280;36011;53.362;58.948;2023-05-22T14:29:09;97831.81;;;25.62;13.15
49943;BME280;36011;53.362;58.948;2023-05-22T14:32:16;97840.44;;;25.41;13.25
49943;BME280;36011;53.362;58.948;2023-05-22T14:35:17;97841.63;;;25.22;13.63
49943;BME280;36011;53.362;58.948;2023-05-22T14:38:21;97843.63;;;25.03;13.23
49943;BME280;36011;53.362;58.948;2023-05-22T14:41:21;97839.59;;;24.91;14.03
49943;BME280;36011;53.362;58.948;2023-05-22T14:44:23;97850.13;;;24.68;14.11
49943;BME280;36011;53.362;58.948;2023-05-22T14:47:25;97844.19;;;24.48;14.25
49943;BME280;36011;53.362;58.948;2023-05-22T14:50:29;97845.13;;;24.39;13.95
49943;BME280;36011;53.362;58.948;2023-05-22T14:53:30;97854.19;;;24.30;14.28
49943;BME280;36011;53.362;58.948;2023-05-22T14:56:33;97854.16;;;24.22;14.38
49943;BME280;36011;53.362;58.948;2023-05-22T14:59:38;97856.47;;;24.16;14.54
49943;BME280;36011;53.362;58.948;2023-05-22T15:02:42;97853.75;;;24.08;14.58
49943;BME280;36011;53.362;58.948;2023-05-22T15:05:43;97860.09;;;23.99;14.34
49943;BME280;36011;53.362;58.948;2023-05-22T15:08:45;97860.22;;;23.97;15.09
49943;BME280;36011;53.362;58.948;2023-05-22T15:11:49;97864.41;;;23.92;14.96
49943;BME280;36011;53.362;58.948;2023-05-22T15:14:55;97864.72;;;23.89;14.83
49943;BME280;36011;53.362;58.948;2023-05-22T15:17:58;97872.22;;;23.77;15.25
49943;BME280;36011;53.362;58.948;2023-05-22T15:21:02;97874.94;;;23.59;15.25
49943;BME280;36011;53.362;58.948;2023-05-22T15:24:06;97881.19;;;23.42;15.17
49943;BME280;36011;53.362;58.948;2023-05-22T15:27:12;97871.44;;;23.23;15.67
49943;BME280;36011;53.362;58.948;2023-05-22T15:30:17;97880.19;;;23.07;15.70
49943;BME280;36011;53.362;58.948;2023-05-22T15:33:21;97886.22;;;22.91;15.82
49943;BME280;36011;53.362;58.948;2023-05-22T15:36:25;97883.53;;;22.73;16.14
49943;BME280;36011;53.362;58.948;2023-05-22T15:39:29;97884.63;;;22.53;15.89
49943;BME280;36011;53.362;58.948;2023-05-22T15:42:30;97883.44;;;22.37;16.21
49943;BME280;36011;53.362;58.948;2023-05-22T15:45:32;97888.59;;;22.21;16.67
49943;BME280;36011;53.362;58.948;2023-05-22T15:48:36;97891.72;;;22.07;16.46
49943;BME280;36011;53.362;58.948;2023-05-22T15:51:37;97885.56;;;21.96;16.80
49943;BME280;36011;53.362;58.948;2023-05-22T15:54:41;97894.34;;;21.79;17.10
49943;BME280;36011;53.362;58.948;2023-05-22T15:57:42;97896.94;;;21.61;17.15
49943;BME280;36011;53.362;58.948;2023-05-22T16:00:45;97891.63;;;21.51;17.17
49943;BME280;36011;53.362;58.948;2023-05-22T16:03:51;97896.53;;;21.37;17.65
49943;BME280;36011;53.362;58.948;2023-05-22T16:06:55;97902.16;;;21.24;17.66
49943;BME280;36011;53.362;58.948;2023-05-22T16:09:58;97903.28;;;21.12;17.44
49943;BME280;36011;53.362;58.948;2023-05-22T16:13:03;97904.69;;;20.96;18.29
49943;BME280;36011;53.362;58.948;2023-05-22T16:16:09;97916.63;;;20.82;18.12
49943;BME280;36011;53.362;58.948;2023-05-22T16:19:12;97915.63;;;20.64;18.53
49943;BME280;36011;53.362;58.948;2023-05-22T16:22:13;97920.44;;;20.49;19.31
49943;BME280;36011;53.362;58.948;2023-05-22T16:25:16;97914.38;;;20.37;19.14